Time;durP1;ratioP1;P1;durP2;ratioP2;P2;SDS_P1;SDS_P2;PMS_P1;PMS_P2;Temp;Humidity;BMP_temperature;BMP_pressure;BME280_temperature;BME280_humidity;BME280_pressure;Samples;Min_cycle;Max_cycle;Signal;HPM_P1;HPM_P2
2023/12/15 00:01:20;;;;;;;0.22;0.22;;;;;;;9.26;73.93;102800.41;5011607;28;20041;-81
2023/12/15 00:03:46;;;;;;;0.10;0.10;;;;;;;9.32;73.43;102789.91;5014742;28;20061;-82
2023/12/15 00:06:12;;;;;;;0.55;0.55;;;;;;;9.22;74.03;102787.97;5014309;28;20030;-82
2023/12/15 00:08:41;;;;;;;0.77;0.77;;;;;;;9.29;73.89;102795.13;5014727;28;20064;-84
2023/12/15 00:11:08;;;;;;;1.02;1.02;;;;;;;9.22;74.34;102804.75;5018161;28;20093;-83
2023/12/15 00:13:34;;;;;;;0.15;0.15;;;;;;;9.25;74.07;102793.31;5017735;28;20036;-84
2023/12/15 00:16:00;;;;;;;0.22;0.22;;;;;;;9.26;73.90;102795.09;5014770;28;20033;-84
2023/12/15 00:18:26;;;;;;;0.20;0.20;;;;;;;9.13;74.38;102798.41;5015768;28;20045;-84
2023/12/15 00:20:52;;;;;;;3.75;2.65;;;;;;;9.26;74.31;102797.75;5010610;28;20088;-82
2023/12/15 00:23:19;;;;;;;0.20;0.20;;;;;;;9.32;73.54;102808.44;5017530;28;20389;-83
2023/12/15 00:25:46;;;;;;;0.35;0.35;;;;;;;9.29;73.95;102812.78;5009471;28;20678;-83
2023/12/15 00:28:12;;;;;;;0.20;0.20;;;;;;;9.28;74.02;102825.09;5020597;28;20076;-82
2023/12/15 00:30:38;;;;;;;0.20;0.20;;;;;;;9.29;74.28;102837.47;5021298;28;20034;-82
2023/12/15 00:33:05;;;;;;;0.45;0.45;;;;;;;9.35;73.85;102842.00;5025331;28;20557;-81
2023/12/15 00:35:31;;;;;;;0.20;0.20;;;;;;;9.36;73.39;102836.72;5015879;28;20038;-83
2023/12/15 00:37:57;;;;;;;0.20;0.20;;;;;;;9.36;73.87;102834.06;5012003;28;20109;-82
2023/12/15 00:40:23;;;;;;;0.22;0.22;;;;;;;9.39;73.44;102827.94;5013987;28;20029;-82
2023/12/15 00:42:49;;;;;;;0.20;0.20;;;;;;;9.36;73.89;102831.41;5014002;28;20071;-81
2023/12/15 00:45:16;;;;;;;0.88;0.82;;;;;;;9.34;74.24;102830.50;5016240;28;20049;-81
2023/12/15 00:47:42;;;;;;;0.40;0.40;;;;;;;9.35;73.97;102834.03;5014067;28;20041;-82
2023/12/15 00:50:08;;;;;;;0.30;0.30;;;;;;;9.37;73.91;102822.63;5033181;28;20028;-83
2023/12/15 00:52:35;;;;;;;0.30;0.30;;;;;;;9.31;74.42;102835.75;5021864;28;20033;-81
2023/12/15 00:55:01;;;;;;;0.52;0.52;;;;;;;9.36;73.88;102833.19;5021468;28;20046;-81
2023/12/15 00:57:27;;;;;;;0.93;0.93;;;;;;;9.29;74.58;102839.22;5020111;28;20065;-83
2023/12/15 00:59:55;;;;;;;1.17;0.75;;;;;;;9.34;74.26;102846.38;5015790;28;20040;-82
2023/12/15 01:02:21;;;;;;;0.20;0.20;;;;;;;9.39;74.09;102844.72;5011969;28;20493;-83
2023/12/15 01:04:47;;;;;;;0.70;0.70;;;;;;;9.38;74.31;102853.50;5016173;28;20045;-83
2023/12/15 01:07:13;;;;;;;0.40;0.40;;;;;;;9.38;74.11;102852.59;5019188;28;20135;-82
2023/12/15 01:09:39;;;;;;;1.23;1.23;;;;;;;9.43;74.21;102857.97;5017382;28;20091;-82
2023/12/15 01:12:06;;;;;;;1.27;1.13;;;;;;;9.46;74.10;102861.56;5023650;28;20069;-82
2023/12/15 01:14:32;;;;;;;0.63;0.63;;;;;;;9.47;74.08;102851.88;5014799;28;20034;-81
2023/12/15 01:17:00;;;;;;;0.22;0.22;;;;;;;9.39;74.64;102850.00;5016814;28;20090;-82
2023/12/15 01:19:26;;;;;;;0.20;0.20;;;;;;;9.44;74.63;102852.72;5019401;28;20025;-83
2023/12/15 01:21:52;;;;;;;2.33;1.20;;;;;;;9.50;73.96;102851.94;5028215;28;20065;-84
2023/12/15 01:24:18;;;;;;;1.08;0.70;;;;;;;9.51;73.98;102848.44;5020159;28;20090;-83
2023/12/15 01:26:45;;;;;;;1.00;1.00;;;;;;;9.45;74.40;102853.63;5026413;28;20105;-83
2023/12/15 01:29:11;;;;;;;1.27;1.10;;;;;;;9.47;74.20;102846.56;5024039;28;20125;-83
2023/12/15 01:31:40;;;;;;;0.20;0.20;;;;;;;9.50;74.07;102858.09;5023526;28;20053;-85
2023/12/15 01:34:06;;;;;;;0.22;0.22;;;;;;;9.45;74.22;102858.91;5024041;28;20053;-83
2023/12/15 01:36:32;;;;;;;2.30;1.15;;;;;;;9.45;73.99;102856.25;5021988;28;20486;-83
2023/12/15 01:38:58;;;;;;;2.13;1.55;;;;;;;9.43;74.31;102844.75;5015188;28;20026;-84
2023/12/15 01:41:24;;;;;;;2.05;1.40;;;;;;;9.43;74.75;102858.88;5018921;28;20026;-83
2023/12/15 01:43:50;;;;;;;1.65;1.17;;;;;;;9.41;74.53;102865.00;5018448;28;20425;-84
2023/12/15 01:46:17;;;;;;;0.20;0.20;;;;;;;9.45;74.26;102870.38;5018449;28;20033;-82
2023/12/15 01:48:43;;;;;;;0.20;0.20;;;;;;;9.48;74.45;102894.25;5018200;28;20404;-83
2023/12/15 01:51:09;;;;;;;1.52;0.63;;;;;;;9.50;73.95;102878.41;5015989;28;20041;-84
2023/12/15 01:53:35;;;;;;;0.70;0.68;;;;;;;9.49;74.28;102889.84;5020425;28;20050;-82
2023/12/15 01:56:04;;;;;;;1.58;1.48;;;;;;;9.50;74.30;102894.28;5020641;28;20030;-83
2023/12/15 01:58:30;;;;;;;0.30;0.30;;;;;;;9.52;74.13;102898.72;5016680;28;20022;-83
2023/12/15 02:00:56;;;;;;;0.55;0.55;;;;;;;9.49;74.33;102903.06;5023345;28;20540;-83
2023/12/15 02:03:22;;;;;;;0.17;0.17;;;;;;;9.51;74.47;102911.94;5020306;28;20121;-82
2023/12/15 02:05:49;;;;;;;0.75;0.75;;;;;;;9.51;74.42;102912.81;5021113;28;20481;-82
2023/12/15 02:08:15;;;;;;;0.52;0.52;;;;;;;9.47;74.54;102910.09;5019059;28;20053;-83
2023/12/15 02:10:41;;;;;;;1.02;1.02;;;;;;;9.47;74.58;102924.22;5018303;28;20520;-84
2023/12/15 02:13:11;;;;;;;1.65;1.23;;;;;;;9.50;74.47;102926.91;5018714;28;20032;-84
2023/12/15 02:15:40;;;;;;;0.57;0.45;;;;;;;9.50;74.38;102931.31;5019237;28;20385;-84
2023/12/15 02:18:06;;;;;;;0.20;0.20;;;;;;;9.50;74.26;102941.91;5025670;28;20032;-84
2023/12/15 02:20:35;;;;;;;0.20;0.20;;;;;;;9.51;74.31;102951.63;5022269;28;20030;-84
2023/12/15 02:23:01;;;;;;;1.67;1.58;;;;;;;9.50;74.22;102955.13;5020949;28;20412;-84
2023/12/15 02:25:27;;;;;;;0.55;0.55;;;;;;;9.49;73.99;102956.00;5021042;28;20065;-84
2023/12/15 02:27:54;;;;;;;1.20;1.20;;;;;;;9.47;74.21;102952.41;5022431;28;20034;-85
2023/12/15 02:30:20;;;;;;;0.95;0.95;;;;;;;9.47;74.13;102963.00;5021695;28;20041;-84
2023/12/15 02:32:46;;;;;;;0.45;0.45;;;;;;;9.49;74.06;102954.22;5019600;28;20400;-83
2023/12/15 02:35:14;;;;;;;0.63;0.63;;;;;;;9.48;73.96;102959.50;5018503;28;20108;-83
2023/12/15 02:37:40;;;;;;;0.32;0.32;;;;;;;9.51;73.76;102959.56;5017619;28;20497;-84
2023/12/15 02:40:07;;;;;;;0.22;0.22;;;;;;;9.53;73.85;102960.47;5018063;28;20034;-85
2023/12/15 02:42:36;;;;;;;0.30;0.30;;;;;;;9.58;73.88;102971.16;5017125;28;20500;-82
2023/12/15 02:45:03;;;;;;;0.47;0.47;;;;;;;9.57;74.17;102964.06;5018885;28;20032;-84
2023/12/15 02:47:30;;;;;;;0.20;0.20;;;;;;;9.58;74.27;102960.56;5018533;28;20083;-84
2023/12/15 02:49:56;;;;;;;0.38;0.38;;;;;;;9.60;74.11;102972.97;5016059;28;20116;-83
2023/12/15 02:52:22;;;;;;;1.52;0.82;;;;;;;9.60;74.20;102980.03;5017536;28;20108;-83
2023/12/15 02:54:48;;;;;;;0.50;0.50;;;;;;;9.62;74.43;102989.78;5017267;28;20148;-83
2023/12/15 02:57:14;;;;;;;0.40;0.40;;;;;;;9.63;74.23;102986.28;5018887;28;20039;-81
2023/12/15 02:59:41;;;;;;;0.35;0.35;;;;;;;9.60;74.32;102994.13;5017215;28;20037;-82
2023/12/15 03:02:07;;;;;;;0.88;0.82;;;;;;;9.63;74.25;102996.84;5013649;28;20025;-81
2023/12/15 03:04:36;;;;;;;0.95;0.95;;;;;;;9.67;74.24;102990.75;5018091;28;20029;-82
2023/12/15 03:07:05;;;;;;;0.95;0.90;;;;;;;9.65;74.04;102997.75;5017267;28;20319;-83
2023/12/15 03:09:31;;;;;;;0.10;0.10;;;;;;;9.65;74.32;102996.88;5009241;28;20030;-83
2023/12/15 03:11:57;;;;;;;3.53;0.57;;;;;;;9.63;74.39;102994.22;5019355;28;20025;-82
2023/12/15 03:14:24;;;;;;;1.05;1.05;;;;;;;9.62;74.33;102987.13;5018408;28;20025;-83
2023/12/15 03:16:50;;;;;;;0.63;0.63;;;;;;;9.59;74.23;102995.00;5015397;28;20030;-83
2023/12/15 03:19:16;;;;;;;0.20;0.20;;;;;;;9.59;74.19;102997.63;5013348;28;20030;-83
2023/12/15 03:21:42;;;;;;;0.73;0.73;;;;;;;9.54;74.46;103002.88;5015105;28;20497;-83
2023/12/15 03:24:08;;;;;;;0.30;0.25;;;;;;;9.59;74.50;103016.16;5016133;28;20391;-84
2023/12/15 03:26:35;;;;;;;0.10;0.10;;;;;;;9.57;74.38;103017.00;5016071;28;20030;-83
2023/12/15 03:29:01;;;;;;;0.95;0.95;;;;;;;9.61;73.95;103017.09;5025061;28;20026;-80
2023/12/15 03:31:27;;;;;;;0.20;0.20;;;;;;;9.61;74.34;103014.44;5032294;28;20030;-84
2023/12/15 03:33:54;;;;;;;0.47;0.47;;;;;;;9.63;74.48;103011.81;5029025;28;20030;-82
2023/12/15 03:36:20;;;;;;;0.30;0.30;;;;;;;9.64;74.29;103017.13;5019987;28;20109;-83
2023/12/15 03:38:46;;;;;;;0.22;0.22;;;;;;;9.69;74.27;103018.16;5018070;28;20512;-83
2023/12/15 03:41:12;;;;;;;2.60;2.38;;;;;;;9.69;74.27;103018.16;5019523;28;20030;-83
2023/12/15 03:43:39;;;;;;;0.50;0.50;;;;;;;9.68;74.25;103026.94;5024491;28;20116;-84
2023/12/15 03:46:05;;;;;;;0.57;0.57;;;;;;;9.70;74.24;103019.91;5026508;28;20032;-81
2023/12/15 03:48:31;;;;;;;0.22;0.22;;;;;;;9.71;74.37;103032.28;5013123;28;20033;-85
2023/12/15 03:50:58;;;;;;;0.60;0.60;;;;;;;9.73;74.12;103032.31;5017544;28;20026;-84
2023/12/15 03:53:25;;;;;;;0.85;0.85;;;;;;;9.74;74.34;103041.16;5020154;28;20487;-83
2023/12/15 03:55:51;;;;;;;0.20;0.20;;;;;;;9.73;74.12;103034.06;5012843;28;20060;-86
2023/12/15 03:58:17;;;;;;;0.55;0.55;;;;;;;9.74;74.24;103035.84;5010258;28;20029;-85
2023/12/15 04:00:43;;;;;;;0.63;0.63;;;;;;;9.74;74.19;103034.09;5018328;28;20037;-86
2023/12/15 04:03:09;;;;;;;0.25;0.25;;;;;;;9.78;74.11;103040.34;5017788;28;20058;-84
2023/12/15 04:05:36;;;;;;;1.30;0.55;;;;;;;9.79;74.29;103050.06;5016906;28;20033;-83
2023/12/15 04:08:02;;;;;;;0.40;0.40;;;;;;;9.80;74.18;103047.44;5017579;28;20029;-84
2023/12/15 04:10:28;;;;;;;0.20;0.20;;;;;;;9.81;73.90;103065.13;5025915;28;20029;-84
2023/12/15 04:12:54;;;;;;;0.10;0.10;;;;;;;9.80;74.11;103054.50;5022331;28;20030;-84
2023/12/15 04:15:20;;;;;;;0.10;0.10;;;;;;;9.82;74.20;103060.69;5022903;28;20060;-84
2023/12/15 04:17:47;;;;;;;0.10;0.10;;;;;;;9.82;74.25;103056.31;5022850;28;20036;-85
2023/12/15 04:20:13;;;;;;;0.30;0.30;;;;;;;9.86;74.16;103067.88;5014378;28;20021;-85
2023/12/15 04:22:39;;;;;;;0.20;0.20;;;;;;;9.85;74.28;103076.66;5018415;28;20160;-84
2023/12/15 04:25:06;;;;;;;0.30;0.30;;;;;;;9.84;74.28;103085.47;5019994;28;20065;-86
2023/12/15 04:27:32;;;;;;;0.32;0.32;;;;;;;9.82;74.17;103081.88;5018300;28;20022;-87
2023/12/15 04:29:58;;;;;;;0.10;0.10;;;;;;;9.84;74.23;103074.88;5018392;28;20065;-84
2023/12/15 04:32:24;;;;;;;0.20;0.20;;;;;;;9.84;74.12;103080.16;5016249;28;20026;-83
2023/12/15 04:34:51;;;;;;;0.10;0.10;;;;;;;9.85;74.26;103074.00;5015917;28;20098;-84
2023/12/15 04:37:17;;;;;;;0.20;0.20;;;;;;;9.79;74.35;103073.91;5017349;28;20037;-82
2023/12/15 04:39:44;;;;;;;0.10;0.10;;;;;;;9.85;73.94;103066.06;5016720;28;20088;-84
2023/12/15 04:42:10;;;;;;;0.10;0.10;;;;;;;9.83;74.19;103078.38;5018138;28;20485;-82
2023/12/15 04:44:40;;;;;;;0.10;0.10;;;;;;;9.84;74.10;103080.16;5018150;28;20034;-84
2023/12/15 04:47:06;;;;;;;0.38;0.38;;;;;;;9.82;74.05;103076.59;5019457;28;20050;-84
2023/12/15 04:49:32;;;;;;;0.10;0.10;;;;;;;9.73;74.32;103076.44;5019382;28;20025;-84
2023/12/15 04:51:59;;;;;;;0.30;0.30;;;;;;;9.75;74.44;103086.19;5020013;28;20025;-83
2023/12/15 04:54:26;;;;;;;0.63;0.63;;;;;;;9.79;74.53;103103.91;5013320;28;20112;-84
2023/12/15 04:56:52;;;;;;;0.75;0.75;;;;;;;9.79;74.28;103093.31;5020393;28;20034;-84
2023/12/15 04:59:18;;;;;;;0.90;0.90;;;;;;;9.82;74.24;103111.00;5018370;28;20049;-83
2023/12/15 05:01:44;;;;;;;1.85;1.75;;;;;;;9.82;74.39;103108.34;5018249;28;20096;-86
2023/12/15 05:04:10;;;;;;;0.30;0.30;;;;;;;9.78;74.40;103098.59;5022597;28;20084;-84
2023/12/15 05:06:37;;;;;;;0.90;0.68;;;;;;;9.83;74.62;103104.84;5021600;28;20033;-85
2023/12/15 05:09:08;;;;;;;1.52;0.73;;;;;;;9.84;74.53;103114.59;5019676;28;20034;-85
2023/12/15 05:11:35;;;;;;;0.98;0.98;;;;;;;9.87;74.15;103112.03;5019249;28;20064;-85
2023/12/15 05:14:01;;;;;;;0.15;0.15;;;;;;;9.81;74.72;103106.59;5022896;28;20026;-85
2023/12/15 05:16:29;;;;;;;0.20;0.20;;;;;;;9.86;74.39;103115.53;5024224;28;20068;-84
2023/12/15 05:18:55;;;;;;;0.95;0.95;;;;;;;9.84;74.64;103118.16;5024425;28;20520;-82
2023/12/15 05:21:21;;;;;;;0.17;0.17;;;;;;;9.82;74.63;103134.84;5022015;28;20050;-83
2023/12/15 05:23:48;;;;;;;0.13;0.13;;;;;;;9.87;74.69;103149.09;5021876;28;20022;-84
2023/12/15 05:26:15;;;;;;;0.20;0.20;;;;;;;9.88;74.67;103150.84;5024708;28;20025;-85
2023/12/15 05:28:44;;;;;;;4.40;0.98;;;;;;;9.93;74.40;103161.53;5022297;28;20120;-86
2023/12/15 05:31:10;;;;;;;0.30;0.30;;;;;;;9.95;74.60;103157.19;5021194;28;20030;-85
2023/12/15 05:33:36;;;;;;;0.10;0.10;;;;;;;9.92;74.79;103151.81;5023455;28;20029;-85
2023/12/15 05:36:05;;;;;;;0.20;0.20;;;;;;;9.90;74.65;103154.44;5021352;28;20034;-84
2023/12/15 05:38:31;;;;;;;0.10;0.10;;;;;;;9.92;74.48;103155.38;5019455;28;20021;-84
2023/12/15 05:40:58;;;;;;;0.22;0.22;;;;;;;9.90;74.74;103143.84;5025029;28;20057;-84
2023/12/15 05:43:24;;;;;;;1.25;1.13;;;;;;;9.96;74.23;103145.72;5024511;28;20033;-86
2023/12/15 05:45:50;;;;;;;0.10;0.10;;;;;;;9.91;74.70;103142.97;5030186;28;20046;-83
2023/12/15 05:48:16;;;;;;;0.35;0.35;;;;;;;9.92;74.66;103142.13;5033315;28;20063;-84
2023/12/15 05:50:43;;;;;;;4.70;2.25;;;;;;;9.90;74.69;103143.84;5028185;28;20090;-86
2023/12/15 05:53:09;;;;;;;0.20;0.20;;;;;;;9.95;74.18;103141.28;5025992;28;20037;-85
2023/12/15 05:55:35;;;;;;;0.10;0.10;;;;;;;9.95;74.61;103147.47;5017044;28;20030;-86
2023/12/15 05:58:01;;;;;;;0.28;0.28;;;;;;;9.97;74.43;103163.38;5019855;28;20447;-83
2023/12/15 06:00:27;;;;;;;0.10;0.10;;;;;;;9.97;74.55;103160.72;5019951;28;20058;-84
2023/12/15 06:02:53;;;;;;;0.32;0.32;;;;;;;9.96;74.66;103157.19;5014375;28;20037;-84
2023/12/15 06:05:19;;;;;;;0.20;0.20;;;;;;;9.99;74.71;103164.31;5021252;28;20412;-82
2023/12/15 06:07:45;;;;;;;0.75;0.75;;;;;;;10.02;74.68;103173.22;5021675;28;20444;-83
2023/12/15 06:10:12;;;;;;;0.10;0.10;;;;;;;10.03;74.52;103172.34;5021080;28;20068;-82
2023/12/15 06:12:41;;;;;;;9.75;1.58;;;;;;;10.08;74.33;103174.19;5024217;28;20073;-82
2023/12/15 06:15:08;;;;;;;0.32;0.32;;;;;;;10.06;74.25;103168.00;5023071;28;20386;-83
2023/12/15 06:17:34;;;;;;;0.00;0.00;;;;;;;10.08;74.41;103163.59;5023640;28;20049;-84
2023/12/15 06:20:00;;;;;;;1.92;1.13;;;;;;;10.00;74.71;103177.56;5022224;28;20025;-84
2023/12/15 06:22:26;;;;;;;0.77;0.77;;;;;;;10.07;74.04;103188.28;5022777;28;20022;-84
2023/12/15 06:24:52;;;;;;;1.25;1.25;;;;;;;10.07;74.17;103188.28;5023414;28;20034;-84
2023/12/15 06:27:19;;;;;;;0.10;0.10;;;;;;;10.04;74.39;103182.09;5021402;28;20033;-84
2023/12/15 06:29:45;;;;;;;0.13;0.13;;;;;;;10.04;74.41;103190.03;5018074;28;20156;-84
2023/12/15 06:32:12;;;;;;;0.10;0.10;;;;;;;10.07;74.37;103188.28;5019203;28;20044;-84
2023/12/15 06:34:42;;;;;;;0.20;0.20;;;;;;;10.10;74.17;103194.56;5017933;28;20061;-85
2023/12/15 06:37:08;;;;;;;0.10;0.10;;;;;;;10.11;74.19;103192.81;5014110;28;20030;-84
2023/12/15 06:39:34;;;;;;;1.95;1.85;;;;;;;10.00;74.52;103197.88;5017926;28;20036;-82
2023/12/15 06:42:02;;;;;;;0.20;0.20;;;;;;;9.97;74.77;103193.44;5027936;28;20030;-83
2023/12/15 06:44:29;;;;;;;0.13;0.13;;;;;;;9.98;74.63;103195.22;5029544;28;20033;-82
2023/12/15 06:46:55;;;;;;;3.70;3.40;;;;;;;10.02;74.38;103212.94;5020620;28;20033;-83
2023/12/15 06:49:29;;;;;;;0.20;0.20;;;;;;;10.03;74.70;103222.69;5018862;28;20030;-82
2023/12/15 06:51:57;;;;;;;2.38;0.63;;;;;;;10.04;74.49;103232.41;5014198;28;20067;-82
2023/12/15 06:54:23;;;;;;;0.20;0.20;;;;;;;10.04;74.64;103236.81;5015670;28;20557;-86
2023/12/15 06:56:49;;;;;;;1.23;1.20;;;;;;;10.02;74.35;103247.38;5018417;28;20034;-83
2023/12/15 06:59:15;;;;;;;0.20;0.20;;;;;;;9.98;74.97;103250.84;5020111;28;20061;-84
2023/12/15 07:01:41;;;;;;;0.10;0.10;;;;;;;10.03;74.49;103237.66;5024157;28;20057;-83
2023/12/15 07:04:08;;;;;;;0.20;0.20;;;;;;;10.00;74.53;103245.56;5025343;28;20034;-83
2023/12/15 07:06:34;;;;;;;0.10;0.10;;;;;;;10.00;74.43;103254.38;5022031;28;20038;-82
2023/12/15 07:09:00;;;;;;;0.88;0.88;;;;;;;10.00;74.52;103251.72;5022037;28;20125;-83
2023/12/15 07:11:26;;;;;;;0.20;0.20;;;;;;;9.99;74.56;103249.97;5022576;28;20045;-85
2023/12/15 07:13:52;;;;;;;0.35;0.35;;;;;;;9.99;74.67;103259.66;5021412;28;20026;-83
2023/12/15 07:16:18;;;;;;;0.28;0.28;;;;;;;10.00;74.61;103246.44;5020247;28;20076;-84
2023/12/15 07:18:45;;;;;;;0.10;0.10;;;;;;;10.03;74.86;103249.16;5019385;28;20115;-84
2023/12/15 07:21:11;;;;;;;0.10;0.10;;;;;;;10.07;74.65;103259.81;5015266;28;20033;-84
2023/12/15 07:23:37;;;;;;;0.32;0.32;;;;;;;10.10;74.48;103258.13;5015395;28;20037;-85
2023/12/15 07:26:06;;;;;;;0.10;0.10;;;;;;;10.11;74.71;103259.91;5017219;28;20026;-84
2023/12/15 07:28:35;;;;;;;0.17;0.17;;;;;;;10.09;74.83;103268.69;5014659;28;20088;-84
2023/12/15 07:31:01;;;;;;;0.40;0.40;;;;;;;10.11;74.80;103267.00;5013423;28;20501;-83
2023/12/15 07:33:27;;;;;;;0.43;0.43;;;;;;;10.15;74.89;103274.13;5015352;28;20021;-82
2023/12/15 07:35:54;;;;;;;0.63;0.63;;;;;;;10.20;74.74;103280.41;5014262;28;20436;-83
2023/12/15 07:38:20;;;;;;;0.20;0.20;;;;;;;10.22;74.81;103272.47;5016204;28;20030;-84
2023/12/15 07:40:46;;;;;;;0.22;0.22;;;;;;;10.22;74.61;103273.41;5019802;28;20042;-83
2023/12/15 07:43:12;;;;;;;0.15;0.15;;;;;;;10.24;74.54;103282.25;5020633;28;20057;-84
2023/12/15 07:45:39;;;;;;;0.55;0.55;;;;;;;10.24;74.65;103290.19;5017357;28;20551;-83
2023/12/15 07:48:05;;;;;;;0.10;0.10;;;;;;;10.24;74.39;103291.97;5017013;28;20034;-82
2023/12/15 07:50:31;;;;;;;0.20;0.20;;;;;;;10.25;74.45;103297.28;5020020;28;20053;-84
2023/12/15 07:52:57;;;;;;;0.10;0.10;;;;;;;10.26;74.52;103301.72;5019455;28;20022;-83
2023/12/15 07:55:24;;;;;;;0.63;0.63;;;;;;;10.28;74.50;103304.41;5015975;28;20053;-84
2023/12/15 07:57:50;;;;;;;0.32;0.32;;;;;;;10.24;74.34;103311.41;5024414;28;20037;-83
2023/12/15 08:00:16;;;;;;;0.10;0.10;;;;;;;10.28;74.27;103318.56;5026399;28;20037;-83
2023/12/15 08:02:44;;;;;;;0.20;0.20;;;;;;;10.31;74.50;103323.03;5035649;28;20113;-85
2023/12/15 08:05:20;;;;;;;0.10;0.10;;;;;;;10.31;74.39;103321.25;5022396;28;20017;-86
2023/12/15 08:07:46;;;;;;;0.20;0.20;;;;;;;10.36;74.26;103330.22;5015250;28;20496;-86
2023/12/15 08:10:12;;;;;;;0.20;0.20;;;;;;;10.36;74.17;103335.53;5013410;28;20029;-86
2023/12/15 08:12:38;;;;;;;0.10;0.10;;;;;;;10.37;73.96;103341.75;5022751;28;20029;-85
2023/12/15 08:15:05;;;;;;;1.65;1.55;;;;;;;10.38;73.84;103334.69;5022598;28;20508;-85
2023/12/15 08:17:33;;;;;;;0.10;0.10;;;;;;;10.37;74.32;103341.75;5016305;28;20040;-84
2023/12/15 08:19:59;;;;;;;0.13;0.13;;;;;;;10.39;74.31;103345.31;5022783;28;20034;-85
2023/12/15 08:22:25;;;;;;;0.10;0.10;;;;;;;10.37;74.06;103352.34;5014372;28;20408;-84
2023/12/15 08:24:52;;;;;;;0.43;0.43;;;;;;;10.40;74.08;103357.69;5020997;28;20049;-85
2023/12/15 08:27:20;;;;;;;0.10;0.10;;;;;;;10.45;74.12;103356.03;5014602;28;20052;-82
2023/12/15 08:29:46;;;;;;;0.20;0.20;;;;;;;10.47;74.26;103366.69;5020667;28;20111;-82
2023/12/15 08:32:12;;;;;;;0.10;0.10;;;;;;;10.49;73.91;103381.75;5014914;28;20026;-82
2023/12/15 08:34:40;;;;;;;0.10;0.10;;;;;;;10.52;74.08;103379.16;5018430;28;20385;-83
2023/12/15 08:37:06;;;;;;;0.28;0.28;;;;;;;10.56;74.13;103380.13;5017846;28;20025;-84
2023/12/15 08:39:32;;;;;;;0.10;0.10;;;;;;;10.60;74.01;103371.38;5015824;28;20033;-84
2023/12/15 08:41:59;;;;;;;0.20;0.20;;;;;;;10.63;73.78;103376.75;5018804;28;20029;-85
2023/12/15 08:44:25;;;;;;;0.10;0.10;;;;;;;10.64;73.92;103378.53;5018303;28;20036;-84
2023/12/15 08:46:54;;;;;;;0.10;0.10;;;;;;;10.65;73.73;103380.34;5017709;28;20041;-85
2023/12/15 08:49:28;;;;;;;0.30;0.30;;;;;;;10.72;73.70;103385.75;5019945;28;20036;-85
2023/12/15 08:52:05;;;;;;;0.43;0.40;;;;;;;10.73;73.24;103390.19;5022684;28;20484;-84
2023/12/15 08:54:31;;;;;;;0.45;0.45;;;;;;;10.76;73.47;103395.56;5026115;28;20034;-81
2023/12/15 08:56:58;;;;;;;0.15;0.15;;;;;;;10.76;73.29;103392.91;5025106;28;20075;-83
2023/12/15 08:59:24;;;;;;;0.68;0.68;;;;;;;10.81;73.62;103399.19;5025108;28;20041;-83
2023/12/15 09:01:50;;;;;;;0.13;0.13;;;;;;;10.81;73.43;103405.38;5027498;28;20033;-82
2023/12/15 09:04:16;;;;;;;0.20;0.20;;;;;;;10.85;73.49;103403.69;5026824;28;20045;-83
2023/12/15 09:06:42;;;;;;;0.10;0.10;;;;;;;10.90;73.01;103411.75;5028169;28;20146;-84
2023/12/15 09:09:10;;;;;;;0.10;0.10;;;;;;;10.90;72.96;103417.94;5017443;28;20081;-83
2023/12/15 09:11:37;;;;;;;0.32;0.32;;;;;;;10.97;73.10;103418.97;5020872;28;20462;-84
2023/12/15 09:14:03;;;;;;;0.20;0.20;;;;;;;10.98;72.96;103424.28;5018347;28;20504;-84
2023/12/15 09:16:29;;;;;;;0.10;0.10;;;;;;;11.02;72.46;103434.97;5023392;28;20093;-85
2023/12/15 09:18:55;;;;;;;0.20;0.20;;;;;;;11.03;72.72;103434.09;5020062;28;20034;-83
2023/12/15 09:21:21;;;;;;;0.10;0.10;;;;;;;11.07;72.39;103435.97;5024227;28;20101;-83
2023/12/15 09:23:48;;;;;;;1.52;1.27;;;;;;;11.12;72.45;103439.59;5022232;28;20090;-82
2023/12/15 09:26:14;;;;;;;0.20;0.20;;;;;;;11.15;72.62;103456.47;5023951;28;20031;-83
2023/12/15 09:28:40;;;;;;;0.10;0.10;;;;;;;11.15;71.97;103456.47;5015903;28;20041;-83
2023/12/15 09:31:06;;;;;;;0.55;0.55;;;;;;;11.23;71.70;103463.69;5020891;28;20026;-83
2023/12/15 09:33:32;;;;;;;0.10;0.10;;;;;;;11.20;71.40;103475.13;5025177;28;20022;-83
2023/12/15 09:35:59;;;;;;;0.10;0.10;;;;;;;11.23;71.14;103482.28;5024295;28;20112;-82
2023/12/15 09:38:25;;;;;;;0.13;0.13;;;;;;;11.27;70.93;103486.78;5023873;28;20022;-83
2023/12/15 09:40:51;;;;;;;0.55;0.55;;;;;;;11.29;70.85;103491.25;5024554;28;20022;-82
2023/12/15 09:43:17;;;;;;;0.85;0.40;;;;;;;11.31;71.11;103492.19;5025277;28;20026;-82
2023/12/15 09:45:44;;;;;;;0.35;0.35;;;;;;;11.38;70.54;103489.63;5025885;28;20034;-83
2023/12/15 09:48:12;;;;;;;0.35;0.28;;;;;;;11.43;70.35;103498.59;5023294;28;20230;-84
2023/12/15 09:50:44;;;;;;;0.13;0.13;;;;;;;11.48;70.73;103494.25;5028498;28;20034;-84
2023/12/15 09:53:12;;;;;;;0.30;0.30;;;;;;;11.47;69.34;103503.06;5028731;28;20022;-83
2023/12/15 09:55:38;;;;;;;0.17;0.17;;;;;;;11.52;69.44;103500.50;5022531;28;20285;-84
2023/12/15 09:58:04;;;;;;;1.40;0.93;;;;;;;11.60;70.23;103512.16;5024909;28;20088;-83
2023/12/15 10:00:31;;;;;;;0.00;0.00;;;;;;;11.67;70.73;103518.50;5021779;28;20034;-82
2023/12/15 10:02:59;;;;;;;0.10;0.10;;;;;;;11.67;69.52;103529.13;5021500;28;20026;-82
2023/12/15 10:05:26;;;;;;;0.00;0.00;;;;;;;11.64;67.88;103535.25;5026257;28;20045;-81
2023/12/15 10:07:52;;;;;;;0.10;0.10;;;;;;;11.61;66.74;103543.16;5026837;28;20006;-83
2023/12/15 10:10:21;;;;;;;0.10;0.10;;;;;;;11.71;68.79;103552.19;5028575;28;20026;-83
2023/12/15 10:12:47;;;;;;;0.63;0.63;;;;;;;11.71;67.61;103544.22;5027836;28;20420;-83
2023/12/15 10:15:13;;;;;;;0.75;0.75;;;;;;;11.81;68.76;103546.19;5031944;28;20037;-82
2023/12/15 10:17:40;;;;;;;0.10;0.10;;;;;;;11.83;67.21;103536.50;5032422;28;20034;-83
2023/12/15 10:20:09;;;;;;;0.20;0.20;;;;;;;11.90;67.17;103541.06;5023471;28;20022;-84
2023/12/15 10:22:38;;;;;;;0.10;0.10;;;;;;;11.94;68.14;103544.66;5029493;28;20247;-84
2023/12/15 10:25:16;;;;;;;0.10;0.10;;;;;;;11.97;67.88;103552.69;5029208;28;20081;-83
2023/12/15 10:27:42;;;;;;;0.63;0.63;;;;;;;11.92;67.58;103560.53;5027990;28;20400;-83
2023/12/15 10:30:09;;;;;;;0.10;0.10;;;;;;;11.93;66.49;103559.69;5028382;28;20046;-84
2023/12/15 10:32:36;;;;;;;0.10;0.10;;;;;;;11.92;67.19;103575.59;5029692;28;20037;-84
2023/12/15 10:35:02;;;;;;;0.30;0.30;;;;;;;11.83;64.41;103571.03;5028107;28;20029;-84
2023/12/15 10:37:29;;;;;;;0.10;0.10;;;;;;;11.94;66.88;103566.78;5029190;28;20121;-83
2023/12/15 10:39:57;;;;;;;0.10;0.10;;;;;;;12.00;68.21;103578.44;5029132;28;20516;-84
2023/12/15 10:42:25;;;;;;;0.10;0.10;;;;;;;12.00;66.67;103586.41;5028677;28;20022;-83
2023/12/15 10:44:53;;;;;;;0.20;0.20;;;;;;;11.96;65.48;103589.03;5028045;28;20026;-83
2023/12/15 10:47:19;;;;;;;0.10;0.10;;;;;;;12.00;65.62;103597.94;5024260;28;20030;-84
2023/12/15 10:49:46;;;;;;;0.10;0.10;;;;;;;12.01;66.21;103596.16;5029294;28;20034;-83
2023/12/15 10:52:15;;;;;;;0.28;0.28;;;;;;;12.00;66.04;103605.91;5029526;28;20032;-83
2023/12/15 10:54:44;;;;;;;0.10;0.10;;;;;;;12.03;65.06;103598.00;5029123;28;20094;-84
2023/12/15 10:57:10;;;;;;;0.10;0.10;;;;;;;12.07;65.82;103604.25;5028837;28;20040;-83
2023/12/15 10:59:39;;;;;;;0.10;0.10;;;;;;;12.01;64.84;103612.13;5027848;28;20444;-82
2023/12/15 11:02:09;;;;;;;0.10;0.10;;;;;;;12.10;65.71;103609.59;5028412;28;20484;-84
2023/12/15 11:04:35;;;;;;;0.17;0.17;;;;;;;12.10;65.74;103612.28;5029609;28;20030;-84
2023/12/15 11:07:02;;;;;;;0.77;0.77;;;;;;;12.15;66.06;103607.97;5026950;28;20045;-84
2023/12/15 11:09:32;;;;;;;0.10;0.10;;;;;;;12.15;64.31;103607.97;5027715;28;20029;-83
2023/12/15 11:17:43;;;;;;;0.10;0.10;;;;;;;12.11;62.42;103574.19;5121415;27;20399;-83
2023/12/15 11:22:52;;;;;;;0.10;0.10;;;;;;;12.20;62.66;103569.06;5116229;27;20396;-82
2023/12/15 11:25:24;;;;;;;0.10;0.10;;;;;;;12.25;63.55;103572.69;5092493;28;20108;-82
2023/12/15 11:28:03;;;;;;;0.10;0.10;;;;;;;12.34;62.21;103571.94;5097447;28;20039;-82
2023/12/15 11:30:34;;;;;;;0.10;0.10;;;;;;;12.41;64.55;103552.56;5088763;28;20412;-82
2023/12/15 11:33:07;;;;;;;0.10;0.10;;;;;;;12.36;61.44;103553.34;5088647;28;20024;-82
2023/12/15 11:35:34;;;;;;;0.10;0.10;;;;;;;12.43;61.72;103549.91;5099097;28;20024;-84